Carpenter, Mississippi
Current Conditions -  °F | °C
As of 10:15 AM on Sunday 25 Jan 2015 (Local Time) from KVKS Reporting Station
Clear Clear  
Wind Chill: 13°   Ceiling: Unl
Heat Index: 13°   Visibility: 10mi
Dew Point:   Wind: 14mph
Humidity: 51%   Direction: 200°SSW
Pressure: 29.89"   Gusts: NA
Location:  31.955°N, 90.8237°W
Report Text: KVKS 251615Z AUTO 20012KT 10SM CLR 13/03 A2989 RMK A01
Loading
Personal Weather Stations






























Interactive Weather Map New forecast layout! Learn more

10-Day Weather Forecast

Advertisements
Track Severe Weather on mobile